createdAt,value
2024-02-06T00:00:17.380Z,24.54
2024-02-06T00:01:16.016Z,24.58
2024-02-06T00:02:14.728Z,24.60
2024-02-06T00:03:14.554Z,24.58
2024-02-06T00:04:14.655Z,24.58
2024-02-06T00:05:14.602Z,24.58
2024-02-06T00:06:14.793Z,24.57
2024-02-06T00:07:20.768Z,24.57
2024-02-06T00:08:15.718Z,24.58
2024-02-06T00:09:14.617Z,24.58
2024-02-06T00:10:14.639Z,24.58
2024-02-06T00:11:14.567Z,24.56
2024-02-06T00:12:14.581Z,24.57
2024-02-06T00:13:14.631Z,24.60
2024-02-06T00:14:14.609Z,24.57
2024-02-06T00:15:14.646Z,24.57
2024-02-06T00:16:14.683Z,24.57
2024-02-06T00:17:14.621Z,24.56
2024-02-06T00:18:14.674Z,24.57
2024-02-06T00:19:14.823Z,24.56
2024-02-06T00:20:14.929Z,24.56
2024-02-06T00:21:14.613Z,24.57
2024-02-06T00:22:14.646Z,24.53
2024-02-06T00:23:14.616Z,24.55
2024-02-06T00:24:14.613Z,24.57
2024-02-06T00:25:14.718Z,24.55
2024-02-06T00:26:14.677Z,24.57
2024-02-06T00:27:14.594Z,24.57
2024-02-06T00:28:14.623Z,24.57
2024-02-06T00:29:14.594Z,24.57
2024-02-06T00:30:14.673Z,24.59
2024-02-06T00:31:14.632Z,24.57
2024-02-06T00:32:14.610Z,24.56
2024-02-06T00:33:14.677Z,24.56
2024-02-06T00:34:14.786Z,24.54
2024-02-06T00:35:14.771Z,24.57
2024-02-06T00:36:14.651Z,24.56
2024-02-06T00:37:14.600Z,24.56
2024-02-06T00:38:14.651Z,24.55
2024-02-06T00:39:14.592Z,24.56
2024-02-06T00:40:15.894Z,24.56
2024-02-06T00:41:14.610Z,24.54
2024-02-06T00:42:14.578Z,24.56
2024-02-06T00:43:14.644Z,24.58
2024-02-06T00:44:14.652Z,24.57
2024-02-06T00:45:14.709Z,24.56
2024-02-06T00:46:14.665Z,24.56
2024-02-06T00:47:14.649Z,24.57
2024-02-06T00:48:14.870Z,24.56
2024-02-06T00:49:15.736Z,24.57
2024-02-06T00:50:14.849Z,24.57
2024-02-06T00:51:14.710Z,24.57
2024-02-06T00:52:14.744Z,24.58
2024-02-06T00:53:14.689Z,24.58
2024-02-06T00:54:14.699Z,24.58
2024-02-06T00:55:14.773Z,24.55
2024-02-06T00:56:15.219Z,24.57
2024-02-06T00:57:14.834Z,24.57
2024-02-06T00:58:14.826Z,24.59
2024-02-06T00:59:14.766Z,24.57
2024-02-06T01:00:14.777Z,24.58
2024-02-06T01:01:14.945Z,24.56
2024-02-06T01:02:14.866Z,24.59
2024-02-06T01:03:14.822Z,24.58
2024-02-06T01:04:14.924Z,24.55
2024-02-06T01:05:14.990Z,24.56
2024-02-06T01:06:14.858Z,24.58
2024-02-06T01:07:15.060Z,24.57
2024-02-06T01:08:14.989Z,24.57
2024-02-06T01:09:14.874Z,24.60
2024-02-06T01:10:14.988Z,24.57
2024-02-06T01:11:14.915Z,24.59
2024-02-06T01:12:14.916Z,24.57
2024-02-06T01:13:15.033Z,24.58
2024-02-06T01:14:14.968Z,24.57
2024-02-06T01:15:14.968Z,24.58
2024-02-06T01:16:15.072Z,24.58
2024-02-06T01:17:14.987Z,24.59
2024-02-06T01:18:15.008Z,24.57
2024-02-06T01:19:15.118Z,24.59
2024-02-06T01:20:15.166Z,24.58
2024-02-06T01:21:15.066Z,24.58
2024-02-06T01:22:15.169Z,24.59
2024-02-06T01:23:15.079Z,24.59
2024-02-06T01:24:15.066Z,24.58
2024-02-06T01:25:15.111Z,24.57
2024-02-06T01:26:15.095Z,24.58
2024-02-06T01:27:15.158Z,24.57
2024-02-06T01:28:15.231Z,24.59
2024-02-06T01:29:15.111Z,24.60
2024-02-06T01:30:15.184Z,24.61
2024-02-06T01:31:15.162Z,24.60
2024-02-06T01:32:15.161Z,24.57
2024-02-06T01:33:15.327Z,24.57
2024-02-06T01:34:15.455Z,24.59
2024-02-06T01:35:15.297Z,24.59
2024-02-06T01:36:15.237Z,24.58
2024-02-06T01:37:15.310Z,24.59
2024-02-06T01:38:15.289Z,24.60
2024-02-06T01:39:15.307Z,24.60
2024-02-06T01:40:15.334Z,24.57
2024-02-06T01:41:15.304Z,24.57
2024-02-06T01:42:15.335Z,24.58
2024-02-06T01:43:15.381Z,24.60
2024-02-06T01:44:15.360Z,24.60
2024-02-06T01:45:15.323Z,24.59
2024-02-06T01:46:15.489Z,24.58
2024-02-06T01:47:15.400Z,24.59
2024-02-06T01:48:15.472Z,24.60
2024-02-06T01:49:15.459Z,24.60
2024-02-06T01:50:15.599Z,24.60
2024-02-06T01:51:15.425Z,24.61
2024-02-06T01:52:15.454Z,24.59
2024-02-06T01:53:15.451Z,24.60
2024-02-06T01:54:15.458Z,24.60
2024-02-06T01:55:15.505Z,24.60
2024-02-06T01:56:15.528Z,24.60
2024-02-06T01:57:15.570Z,24.59
2024-02-06T01:58:15.616Z,24.59
2024-02-06T01:59:15.615Z,24.60
2024-02-06T02:00:15.606Z,24.60
2024-02-06T02:01:15.695Z,24.59
2024-02-06T02:02:15.714Z,24.59
2024-02-06T02:03:15.579Z,24.60
2024-02-06T02:04:15.627Z,24.61
2024-02-06T02:05:15.868Z,24.61
2024-02-06T02:06:15.794Z,24.60
2024-02-06T02:07:15.648Z,24.59
2024-02-06T02:08:15.624Z,24.60
2024-02-06T02:09:15.720Z,24.61
2024-02-06T02:10:15.731Z,24.60
2024-02-06T02:11:15.706Z,24.62
2024-02-06T02:12:15.716Z,24.63
2024-02-06T02:13:16.140Z,24.62
2024-02-06T02:14:15.798Z,24.62
2024-02-06T02:15:15.732Z,24.62
2024-02-06T02:16:15.761Z,24.61
2024-02-06T02:17:15.804Z,24.62
2024-02-06T02:18:15.865Z,24.63
2024-02-06T02:19:16.119Z,24.61
2024-02-06T02:20:15.880Z,24.62
2024-02-06T02:21:15.834Z,24.61
2024-02-06T02:22:15.915Z,24.60
2024-02-06T02:23:23.033Z,24.60
2024-02-06T02:24:16.869Z,24.60
2024-02-06T02:25:15.886Z,24.60
2024-02-06T02:26:15.869Z,24.59
2024-02-06T02:27:15.940Z,24.59
2024-02-06T02:28:15.971Z,24.61
2024-02-06T02:29:15.962Z,24.61
2024-02-06T02:30:15.864Z,24.60
2024-02-06T02:31:15.971Z,24.59
2024-02-06T02:32:15.882Z,24.60
2024-02-06T02:33:15.905Z,24.62
2024-02-06T02:34:16.079Z,24.60
2024-02-06T02:35:15.951Z,24.61
2024-02-06T02:36:15.899Z,24.58
2024-02-06T02:37:15.928Z,24.61
2024-02-06T02:38:15.909Z,24.62
2024-02-06T02:39:15.929Z,24.62
2024-02-06T02:40:15.983Z,24.60
2024-02-06T02:41:15.951Z,24.60
2024-02-06T02:42:15.844Z,24.59
2024-02-06T02:43:15.940Z,24.60
2024-02-06T02:44:15.930Z,24.60
2024-02-06T02:45:15.906Z,24.61
2024-02-06T02:46:15.942Z,24.61
2024-02-06T02:47:15.939Z,24.60
2024-02-06T02:48:16.011Z,24.61
2024-02-06T02:49:16.054Z,24.60
2024-02-06T02:50:15.979Z,24.60
2024-02-06T02:51:15.907Z,24.61
2024-02-06T02:52:16.008Z,24.62
2024-02-06T02:53:16.010Z,24.61
2024-02-06T02:54:16.000Z,24.61
2024-02-06T02:55:16.039Z,24.60
2024-02-06T02:56:16.021Z,24.59
2024-02-06T02:57:16.997Z,24.60
2024-02-06T02:58:16.190Z,24.61
2024-02-06T02:59:16.106Z,24.62
2024-02-06T03:00:16.079Z,24.61
2024-02-06T03:01:16.191Z,24.62
2024-02-06T03:02:16.218Z,24.61
2024-02-06T03:03:16.162Z,24.61
2024-02-06T03:04:16.269Z,24.61
2024-02-06T03:05:16.201Z,24.61
2024-02-06T03:06:16.198Z,24.61
2024-02-06T03:07:16.204Z,24.61
2024-02-06T03:08:16.297Z,24.59
2024-02-06T03:09:16.231Z,24.61
2024-02-06T03:10:16.237Z,24.61
2024-02-06T03:11:16.248Z,24.61
2024-02-06T03:12:16.348Z,24.62
2024-02-06T03:13:16.612Z,24.59
2024-02-06T03:14:16.317Z,24.62
2024-02-06T03:15:16.272Z,24.62
2024-02-06T03:16:16.441Z,24.61
2024-02-06T03:17:16.379Z,24.61
2024-02-06T03:18:16.423Z,24.60
2024-02-06T03:19:16.472Z,24.61
2024-02-06T03:20:16.561Z,24.59
2024-02-06T03:21:16.404Z,24.61
2024-02-06T03:22:16.517Z,24.61
2024-02-06T03:23:16.628Z,24.59
2024-02-06T03:24:16.429Z,24.60
2024-02-06T03:25:16.449Z,24.61
2024-02-06T03:26:16.479Z,24.60
2024-02-06T03:27:16.519Z,24.59
2024-02-06T03:28:16.567Z,24.60
2024-02-06T03:29:16.484Z,24.60
2024-02-06T03:30:16.529Z,24.61
2024-02-06T03:31:16.585Z,24.61
2024-02-06T03:32:16.504Z,24.62
2024-02-06T03:33:16.610Z,24.61
2024-02-06T03:34:17.080Z,24.60
2024-02-06T03:35:17.726Z,24.59
2024-02-06T03:36:16.534Z,24.59
2024-02-06T03:37:16.645Z,24.60
2024-02-06T03:38:16.657Z,24.58
2024-02-06T03:39:16.553Z,24.58
2024-02-06T03:40:16.702Z,24.58
2024-02-06T03:41:16.577Z,24.58
2024-02-06T03:42:16.788Z,24.57
2024-02-06T03:43:16.763Z,24.57
2024-02-06T03:44:16.632Z,24.55
2024-02-06T03:45:16.631Z,24.55
2024-02-06T03:46:16.702Z,24.54
2024-02-06T03:47:16.741Z,24.53
2024-02-06T03:48:16.685Z,24.54
2024-02-06T03:49:16.833Z,24.56
2024-02-06T03:50:16.739Z,24.54
2024-02-06T03:51:16.717Z,24.53
2024-02-06T03:52:16.735Z,24.53
2024-02-06T03:53:16.663Z,24.54
2024-02-06T03:54:16.944Z,24.51
2024-02-06T03:55:16.735Z,24.54
2024-02-06T03:56:16.699Z,24.52
2024-02-06T03:57:18.578Z,24.52
2024-02-06T03:58:16.823Z,24.53
2024-02-06T03:59:16.699Z,24.51
2024-02-06T04:00:16.800Z,24.49
2024-02-06T04:01:16.829Z,24.50
2024-02-06T04:02:16.808Z,24.50
2024-02-06T04:03:16.768Z,24.47
2024-02-06T04:04:17.146Z,24.49
2024-02-06T04:05:16.703Z,24.48
2024-02-06T04:06:16.825Z,24.45
2024-02-06T04:07:16.908Z,24.47
2024-02-06T04:08:16.719Z,24.47
2024-02-06T04:09:16.821Z,24.48
2024-02-06T04:10:16.892Z,24.46
2024-02-06T04:11:16.743Z,24.43
2024-02-06T04:12:16.747Z,24.44
2024-02-06T04:13:16.912Z,24.44
2024-02-06T04:14:16.774Z,24.42
2024-02-06T04:15:16.806Z,24.42
2024-02-06T04:16:16.788Z,24.43
2024-02-06T04:17:17.075Z,24.42
2024-02-06T04:18:16.864Z,24.40
2024-02-06T04:19:16.893Z,24.40
2024-02-06T04:20:17.100Z,24.41
2024-02-06T04:21:16.771Z,24.36
2024-02-06T04:22:16.836Z,24.39
2024-02-06T04:23:16.760Z,24.39
2024-02-06T04:24:16.773Z,24.38
2024-02-06T04:25:16.774Z,24.37
2024-02-06T04:26:16.850Z,24.36
2024-02-06T04:27:16.784Z,24.33
2024-02-06T04:28:16.850Z,24.36
2024-02-06T04:29:16.802Z,24.35
2024-02-06T04:30:16.827Z,24.33
2024-02-06T04:31:24.102Z,24.39
2024-02-06T04:32:24.168Z,24.37
2024-02-06T04:33:24.153Z,24.37
2024-02-06T04:34:24.175Z,24.32
2024-02-06T04:35:24.126Z,24.32
2024-02-06T04:36:24.155Z,24.31
2024-02-06T04:37:24.171Z,24.32
2024-02-06T04:38:24.099Z,24.30
2024-02-06T04:39:24.045Z,24.31
2024-02-06T04:40:24.484Z,24.29
2024-02-06T04:41:24.165Z,24.29
2024-02-06T04:42:24.079Z,24.26
2024-02-06T04:43:24.188Z,24.25
2024-02-06T04:44:24.121Z,24.26
2024-02-06T04:45:24.121Z,24.26
2024-02-06T04:46:24.154Z,24.24
2024-02-06T04:47:24.160Z,24.26
2024-02-06T04:48:24.063Z,24.26
2024-02-06T04:49:24.129Z,24.26
2024-02-06T04:50:24.135Z,24.24
2024-02-06T04:51:24.109Z,24.22
2024-02-06T04:52:24.216Z,24.22
2024-02-06T04:53:24.101Z,24.23
2024-02-06T04:54:24.139Z,24.22
2024-02-06T04:55:24.170Z,24.20
2024-02-06T04:56:24.362Z,24.20
2024-02-06T04:57:24.114Z,24.19
2024-02-06T04:58:24.242Z,24.21
2024-02-06T04:59:24.124Z,24.19
2024-02-06T05:00:24.078Z,24.16
2024-02-06T05:01:24.276Z,24.18
2024-02-06T05:02:25.146Z,24.05
2024-02-06T05:03:24.139Z,23.88
2024-02-06T05:04:24.278Z,23.76
2024-02-06T05:05:24.148Z,23.76
2024-02-06T05:06:24.268Z,23.74
2024-02-06T05:07:24.186Z,23.70
2024-02-06T05:08:24.325Z,23.71
2024-02-06T05:09:24.178Z,23.54
2024-02-06T05:10:24.112Z,23.53
2024-02-06T05:11:24.185Z,23.51
2024-02-06T05:12:24.170Z,23.36
2024-02-06T05:13:24.457Z,23.32
2024-02-06T05:14:24.438Z,23.37
2024-02-06T05:15:24.433Z,23.41
2024-02-06T05:16:24.579Z,23.29
2024-02-06T05:17:24.547Z,23.26
2024-02-06T05:18:24.763Z,23.27
2024-02-06T05:19:24.804Z,23.17
2024-02-06T05:20:24.719Z,23.11
2024-02-06T05:21:24.806Z,23.15
2024-02-06T05:22:24.888Z,23.08
2024-02-06T05:23:25.030Z,23.06
2024-02-06T05:24:25.255Z,23.03
2024-02-06T05:25:25.373Z,23.06
2024-02-06T05:26:25.353Z,23.02
2024-02-06T05:27:25.193Z,22.94
2024-02-06T05:28:25.422Z,22.97
2024-02-06T05:29:25.472Z,23.00
2024-02-06T05:30:25.433Z,22.98
2024-02-06T05:31:25.557Z,23.05
2024-02-06T05:32:25.644Z,23.19
2024-02-06T05:33:25.659Z,23.22
2024-02-06T05:34:25.828Z,23.28
2024-02-06T05:35:26.120Z,23.30
2024-02-06T05:36:25.897Z,23.31
2024-02-06T05:37:25.948Z,23.35
2024-02-06T05:38:26.031Z,23.36
2024-02-06T05:39:26.052Z,23.37
2024-02-06T05:40:26.142Z,23.37
2024-02-06T05:41:26.224Z,23.40
2024-02-06T05:42:26.268Z,23.40
2024-02-06T05:43:26.434Z,23.43
2024-02-06T05:44:26.623Z,23.44
2024-02-06T05:45:26.505Z,23.45
2024-02-06T05:46:26.626Z,23.47
2024-02-06T05:47:26.605Z,23.47
2024-02-06T05:48:26.756Z,23.49
2024-02-06T05:49:26.918Z,23.49
2024-02-06T05:50:26.940Z,23.52
2024-02-06T05:51:26.906Z,23.52
2024-02-06T05:52:27.047Z,23.52
2024-02-06T05:53:26.975Z,23.53
2024-02-06T05:54:27.136Z,23.53
2024-02-06T05:55:27.172Z,23.53
2024-02-06T05:56:27.258Z,23.54
2024-02-06T05:57:27.250Z,23.53
2024-02-06T05:58:27.391Z,23.54
2024-02-06T05:59:27.420Z,23.54
2024-02-06T06:00:27.619Z,23.56
2024-02-06T06:01:27.664Z,23.58
2024-02-06T06:02:27.729Z,23.55
2024-02-06T06:03:27.809Z,23.61
2024-02-06T06:04:31.057Z,23.63
2024-02-06T06:05:28.194Z,23.62
2024-02-06T06:06:27.952Z,23.62
2024-02-06T06:07:28.045Z,23.62
2024-02-06T06:08:27.827Z,23.64
2024-02-06T06:09:27.896Z,23.63
2024-02-06T06:10:28.356Z,23.74
2024-02-06T06:11:27.821Z,23.86
2024-02-06T06:12:27.825Z,23.85
2024-02-06T06:13:27.950Z,23.82
2024-02-06T06:14:28.153Z,23.96
2024-02-06T06:15:27.782Z,23.89
2024-02-06T06:16:27.839Z,23.83
2024-02-06T06:17:28.525Z,23.77
2024-02-06T06:18:27.859Z,23.84
2024-02-06T06:19:27.984Z,23.64
2024-02-06T06:20:28.861Z,23.55
2024-02-06T06:21:27.803Z,23.43
2024-02-06T06:22:27.870Z,23.47
2024-02-06T06:23:27.793Z,23.39
2024-02-06T06:24:28.121Z,23.36
2024-02-06T06:25:27.910Z,23.31
2024-02-06T06:26:27.926Z,23.43
2024-02-06T06:27:27.905Z,23.53
2024-02-06T06:28:27.960Z,23.54
2024-02-06T06:29:28.573Z,23.68
2024-02-06T06:30:28.384Z,23.68
2024-02-06T06:31:27.842Z,23.44
2024-02-06T06:32:27.911Z,23.38
2024-02-06T06:33:28.113Z,23.55
2024-02-06T06:34:28.260Z,23.39
2024-02-06T06:35:28.910Z,23.37
2024-02-06T06:36:28.233Z,23.42
2024-02-06T06:37:28.038Z,23.51
2024-02-06T06:38:28.009Z,23.71
2024-02-06T06:39:28.024Z,23.68
2024-02-06T06:40:28.151Z,23.78
2024-02-06T06:41:28.356Z,23.67
2024-02-06T06:42:28.109Z,23.63
2024-02-06T06:43:30.066Z,23.41
2024-02-06T06:44:28.254Z,23.81
2024-02-06T06:45:28.157Z,23.63
2024-02-06T06:46:28.179Z,23.63
2024-02-06T06:47:28.148Z,23.11
2024-02-06T06:48:28.418Z,22.76
2024-02-06T06:49:28.349Z,23.31
2024-02-06T06:50:28.397Z,22.99
2024-02-06T06:51:28.450Z,23.02
2024-02-06T06:52:28.391Z,23.39
2024-02-06T06:53:28.427Z,23.23
2024-02-06T06:54:29.346Z,23.09
2024-02-06T06:55:29.126Z,23.04
2024-02-06T06:56:29.622Z,22.99
2024-02-06T06:57:29.312Z,23.02
2024-02-06T06:58:28.995Z,23.05
2024-02-06T06:59:28.680Z,23.16
2024-02-06T07:00:29.527Z,23.12
2024-02-06T07:01:29.776Z,23.15
2024-02-06T07:02:29.309Z,23.00
2024-02-06T07:03:29.401Z,23.09
2024-02-06T07:04:30.111Z,23.07
2024-02-06T07:05:29.143Z,23.10
2024-02-06T07:06:29.313Z,23.17
2024-02-06T07:07:29.241Z,22.88
2024-02-06T07:08:29.204Z,22.97
2024-02-06T07:09:30.379Z,22.87
2024-02-06T07:10:29.611Z,23.07
2024-02-06T07:11:29.517Z,23.38
2024-02-06T07:12:29.522Z,23.33
2024-02-06T07:13:29.516Z,23.45
2024-02-06T07:14:30.131Z,23.40
2024-02-06T07:15:29.726Z,23.21
2024-02-06T07:16:29.779Z,23.12
2024-02-06T07:17:29.866Z,22.93
2024-02-06T07:18:29.911Z,22.93
2024-02-06T07:19:31.265Z,22.89
2024-02-06T07:20:30.241Z,22.84
2024-02-06T07:21:29.990Z,22.73
2024-02-06T07:22:30.272Z,22.59
2024-02-06T07:23:30.132Z,22.40
2024-02-06T07:24:30.799Z,22.36
2024-02-06T07:25:34.731Z,22.35
2024-02-06T07:26:30.184Z,22.33
2024-02-06T07:27:30.183Z,22.18
2024-02-06T07:28:30.305Z,22.05
2024-02-06T07:29:30.321Z,21.93
2024-02-06T07:30:36.727Z,21.96
2024-02-06T07:31:31.174Z,21.83
2024-02-06T07:32:30.584Z,21.82
2024-02-06T07:33:30.339Z,21.72
2024-02-06T07:34:30.298Z,21.69
2024-02-06T07:35:30.400Z,21.62
2024-02-06T07:36:30.498Z,21.63
2024-02-06T07:37:30.424Z,21.30
2024-02-06T07:38:30.447Z,21.18
2024-02-06T07:39:30.250Z,21.12
2024-02-06T07:40:30.251Z,21.28
2024-02-06T07:41:30.207Z,21.39
2024-02-06T07:42:30.477Z,21.57
2024-02-06T07:43:31.340Z,21.69
2024-02-06T07:44:32.459Z,21.93
2024-02-06T07:45:31.050Z,22.26
2024-02-06T07:46:30.247Z,22.31
2024-02-06T07:47:30.263Z,22.40
2024-02-06T07:48:33.596Z,22.37
2024-02-06T07:49:30.386Z,22.28
2024-02-06T07:50:30.977Z,22.20
2024-02-06T07:51:30.231Z,22.19
2024-02-06T07:52:30.219Z,22.27
2024-02-06T07:53:30.772Z,22.34
2024-02-06T07:54:30.425Z,22.25
2024-02-06T07:55:30.639Z,22.37
2024-02-06T07:56:32.782Z,22.34
2024-02-06T07:57:31.093Z,22.21
2024-02-06T07:58:30.287Z,22.19
2024-02-06T07:59:30.497Z,22.12
2024-02-06T08:00:30.703Z,22.02
2024-02-06T08:01:30.876Z,21.68
2024-02-06T08:02:30.303Z,21.87
2024-02-06T08:03:30.423Z,21.86
2024-02-06T08:04:30.381Z,21.81
2024-02-06T08:05:30.365Z,21.70
2024-02-06T08:06:31.514Z,21.72
2024-02-06T08:07:30.475Z,21.93
2024-02-06T08:08:30.266Z,21.85
2024-02-06T08:09:30.340Z,21.79
2024-02-06T08:10:30.735Z,21.78
2024-02-06T08:11:30.318Z,21.79
2024-02-06T08:12:30.262Z,21.87
2024-02-06T08:13:30.299Z,22.09
2024-02-06T08:14:30.946Z,22.33
2024-02-06T08:15:30.309Z,22.31
2024-02-06T08:16:30.343Z,22.30
2024-02-06T08:17:30.358Z,22.34
2024-02-06T08:18:31.050Z,22.37
2024-02-06T08:19:30.585Z,22.31
2024-02-06T08:20:30.692Z,22.23
2024-02-06T08:21:30.631Z,22.39
2024-02-06T08:22:30.772Z,22.43
2024-02-06T08:23:30.819Z,22.44
2024-02-06T08:24:30.829Z,22.43
2024-02-06T08:25:32.227Z,22.38
2024-02-06T08:26:30.875Z,22.30
2024-02-06T08:27:31.750Z,22.26
2024-02-06T08:28:31.411Z,22.26
2024-02-06T08:29:30.868Z,22.22
2024-02-06T08:30:30.893Z,22.17
2024-02-06T08:31:30.827Z,22.09
2024-02-06T08:32:30.843Z,22.36
2024-02-06T08:33:30.831Z,22.57
2024-02-06T08:34:31.350Z,22.72
2024-02-06T08:35:30.956Z,22.59
2024-02-06T08:36:31.054Z,22.53
2024-02-06T08:37:32.099Z,22.42
2024-02-06T08:38:31.537Z,22.63
2024-02-06T08:39:30.806Z,23.05
2024-02-06T08:40:31.006Z,23.25
2024-02-06T08:41:30.922Z,23.10
2024-02-06T08:42:31.799Z,23.27
2024-02-06T08:43:39.585Z,23.07
2024-02-06T08:44:32.835Z,22.81
2024-02-06T08:45:31.420Z,22.46
2024-02-06T08:46:31.072Z,22.22
2024-02-06T08:47:31.021Z,22.19
2024-02-06T08:48:36.256Z,22.13
2024-02-06T08:49:31.938Z,22.10
2024-02-06T08:50:35.875Z,22.04
2024-02-06T08:51:30.947Z,22.01
2024-02-06T08:52:31.997Z,21.96
2024-02-06T08:53:30.972Z,21.88
2024-02-06T08:54:31.435Z,21.84
2024-02-06T08:55:31.189Z,21.83
2024-02-06T08:56:32.989Z,21.94
2024-02-06T08:57:32.084Z,21.95
2024-02-06T08:58:30.954Z,21.90
2024-02-06T08:59:30.870Z,21.89
2024-02-06T09:00:31.009Z,21.89
2024-02-06T09:01:31.100Z,21.99
2024-02-06T09:02:31.514Z,22.08
2024-02-06T09:03:31.125Z,21.94
2024-02-06T09:04:32.066Z,21.95
2024-02-06T09:05:31.553Z,22.00
2024-02-06T09:06:31.247Z,22.02
2024-02-06T09:07:31.355Z,22.06
2024-02-06T09:08:31.429Z,22.05
2024-02-06T09:09:31.390Z,21.99
2024-02-06T09:10:32.330Z,21.70
2024-02-06T09:11:31.537Z,21.77
2024-02-06T09:12:34.574Z,21.68
2024-02-06T09:13:31.651Z,21.75
2024-02-06T09:14:33.304Z,21.80
2024-02-06T09:15:31.648Z,21.82
2024-02-06T09:16:31.556Z,21.89
2024-02-06T09:17:31.904Z,21.83
2024-02-06T09:18:31.740Z,21.81
2024-02-06T09:19:31.613Z,21.91
2024-02-06T09:20:33.077Z,21.95
2024-02-06T09:21:31.563Z,22.05
2024-02-06T09:22:31.926Z,21.97
2024-02-06T09:23:31.624Z,22.05
2024-02-06T09:24:32.140Z,22.08
2024-02-06T09:25:31.840Z,22.18
2024-02-06T09:26:31.709Z,22.15
2024-02-06T09:27:31.755Z,21.73
2024-02-06T09:28:31.734Z,21.74
2024-02-06T09:29:31.980Z,21.79
2024-02-06T09:30:31.930Z,21.54
2024-02-06T09:31:31.832Z,22.14
2024-02-06T09:32:31.875Z,21.82
2024-02-06T09:33:32.362Z,22.33
2024-02-06T09:34:32.165Z,21.94
2024-02-06T09:35:32.151Z,21.88
2024-02-06T09:36:32.071Z,22.13
2024-02-06T09:37:32.159Z,21.88
2024-02-06T09:38:32.281Z,21.86
2024-02-06T09:39:32.302Z,21.99
2024-02-06T09:40:32.438Z,21.88
2024-02-06T09:41:32.412Z,22.07
2024-02-06T09:42:32.661Z,22.31
2024-02-06T09:43:32.828Z,22.35
2024-02-06T09:44:32.864Z,22.72
2024-02-06T09:45:34.654Z,22.78
2024-02-06T09:46:32.936Z,22.34
2024-02-06T09:47:32.828Z,22.21
2024-02-06T09:48:33.517Z,22.22
2024-02-06T09:49:33.008Z,22.47
2024-02-06T09:50:33.744Z,22.25
2024-02-06T09:51:32.962Z,22.35
2024-02-06T09:52:34.894Z,22.35
2024-02-06T09:53:33.347Z,22.15
2024-02-06T09:54:33.175Z,21.97
2024-02-06T09:55:33.391Z,22.27
2024-02-06T09:56:33.177Z,22.09
2024-02-06T09:57:34.169Z,22.14
2024-02-06T09:58:37.023Z,22.01
2024-02-06T09:59:33.454Z,21.96
2024-02-06T10:00:33.297Z,22.05
2024-02-06T10:01:33.372Z,22.03
2024-02-06T10:02:33.282Z,22.18
2024-02-06T10:03:33.350Z,22.24
2024-02-06T10:04:33.766Z,22.20
2024-02-06T10:05:38.762Z,22.16
2024-02-06T10:06:42.475Z,22.29
2024-02-06T10:07:43.063Z,22.16
2024-02-06T10:08:42.632Z,22.14
2024-02-06T10:09:42.545Z,22.07
2024-02-06T10:10:43.416Z,21.97
2024-02-06T10:11:42.500Z,21.95
2024-02-06T10:12:43.031Z,21.98
2024-02-06T10:13:42.645Z,22.02
2024-02-06T10:14:45.276Z,21.96
2024-02-06T10:15:42.954Z,22.09
2024-02-06T10:16:42.689Z,22.11
2024-02-06T10:17:42.426Z,22.11
2024-02-06T10:18:46.311Z,21.94
2024-02-06T10:19:42.680Z,22.10
2024-02-06T10:20:42.475Z,21.99
2024-02-06T10:21:44.678Z,22.13
2024-02-06T10:22:43.525Z,22.26
2024-02-06T10:23:42.512Z,22.10
2024-02-06T10:24:42.550Z,22.12
2024-02-06T10:25:43.062Z,22.21
2024-02-06T10:26:42.587Z,22.31
2024-02-06T10:27:42.667Z,22.15
2024-02-06T10:28:42.902Z,22.19
2024-02-06T10:29:42.690Z,22.32
2024-02-06T10:30:45.008Z,22.59
2024-02-06T10:31:43.252Z,22.61
2024-02-06T10:32:42.965Z,22.70
2024-02-06T10:33:43.848Z,22.87
2024-02-06T10:34:42.903Z,22.99
2024-02-06T10:35:42.967Z,22.94
2024-02-06T10:36:42.824Z,22.90
2024-02-06T10:37:43.774Z,22.78
2024-02-06T10:38:42.855Z,22.88
2024-02-06T10:39:43.252Z,22.85
2024-02-06T10:40:44.072Z,22.58
2024-02-06T10:42:08.498Z,22.56
2024-02-06T10:43:46.667Z,22.92
2024-02-06T10:44:43.053Z,22.75
2024-02-06T10:45:44.040Z,22.69
2024-02-06T10:46:43.300Z,22.59
2024-02-06T10:47:43.010Z,22.49
2024-02-06T10:48:42.995Z,22.65
2024-02-06T10:49:43.069Z,22.58
2024-02-06T10:50:43.920Z,22.41
2024-02-06T10:51:43.057Z,22.48
2024-02-06T10:52:43.601Z,22.40
2024-02-06T10:53:43.037Z,22.43
2024-02-06T10:54:43.262Z,22.45
2024-02-06T10:55:43.457Z,22.31
2024-02-06T10:56:43.180Z,22.47
2024-02-06T10:57:43.285Z,22.43
2024-02-06T10:58:43.397Z,22.40
2024-02-06T10:59:44.137Z,22.36
2024-02-06T11:00:43.714Z,22.39
2024-02-06T11:01:43.859Z,22.23
2024-02-06T11:02:43.474Z,22.24
2024-02-06T11:03:43.447Z,22.19
2024-02-06T11:04:43.527Z,22.26
2024-02-06T11:05:43.966Z,22.05
2024-02-06T11:06:44.810Z,22.19
2024-02-06T11:07:43.796Z,22.09
2024-02-06T11:08:44.491Z,21.96
2024-02-06T11:09:48.431Z,22.14
2024-02-06T11:10:43.833Z,22.34
2024-02-06T11:11:43.695Z,22.20
2024-02-06T11:12:43.645Z,22.18
2024-02-06T11:13:43.784Z,22.10
2024-02-06T11:14:43.829Z,22.18
2024-02-06T11:15:44.988Z,22.13
2024-02-06T11:16:44.542Z,22.10
2024-02-06T11:17:44.255Z,21.94
2024-02-06T11:18:43.706Z,22.08
2024-02-06T11:19:44.567Z,22.27
2024-02-06T11:20:43.649Z,22.49
2024-02-06T11:21:44.099Z,22.50
2024-02-06T11:22:43.766Z,22.52
2024-02-06T11:23:45.608Z,22.62
2024-02-06T11:24:43.660Z,22.58
2024-02-06T11:25:43.858Z,22.60
2024-02-06T11:26:44.501Z,22.55
2024-02-06T11:27:43.893Z,22.40
2024-02-06T11:28:45.465Z,22.48
2024-02-06T11:29:43.974Z,22.41
2024-02-06T11:30:43.711Z,22.56
2024-02-06T11:31:44.607Z,22.49
2024-02-06T11:32:43.909Z,22.16
2024-02-06T11:33:43.972Z,22.13
2024-02-06T11:34:44.062Z,21.97
2024-02-06T11:35:43.810Z,21.93
2024-02-06T11:36:44.296Z,21.98
2024-02-06T11:37:44.828Z,22.06
2024-02-06T11:38:43.838Z,22.11
2024-02-06T11:39:44.140Z,22.29
2024-02-06T11:40:43.901Z,22.35
2024-02-06T11:41:43.955Z,22.41
2024-02-06T11:42:43.853Z,22.39
2024-02-06T11:43:44.047Z,22.38
2024-02-06T11:44:43.904Z,22.37
2024-02-06T11:45:44.428Z,22.35
2024-02-06T11:46:46.768Z,22.30
2024-02-06T11:47:43.989Z,22.31
2024-02-06T11:48:44.257Z,22.46
2024-02-06T11:49:45.207Z,22.47
2024-02-06T11:50:44.045Z,22.55
2024-02-06T11:51:43.924Z,22.57
2024-02-06T11:52:44.573Z,22.56
2024-02-06T11:53:43.880Z,22.68
2024-02-06T11:54:44.811Z,22.70
2024-02-06T11:55:44.000Z,22.65
2024-02-06T11:56:43.955Z,22.41
2024-02-06T11:57:43.960Z,22.22
2024-02-06T11:58:44.023Z,21.75
2024-02-06T11:59:44.123Z,21.41
2024-02-06T12:00:44.289Z,21.43
2024-02-06T12:01:45.293Z,21.08
2024-02-06T12:02:44.079Z,20.95
2024-02-06T12:03:43.901Z,20.85
2024-02-06T12:04:43.963Z,20.71
2024-02-06T12:05:45.640Z,20.63
2024-02-06T12:06:44.413Z,20.54
2024-02-06T12:07:45.371Z,20.49
2024-02-06T12:08:43.962Z,20.34
2024-02-06T12:09:43.977Z,20.24
2024-02-06T12:10:43.960Z,20.21
2024-02-06T12:11:46.941Z,20.30
2024-02-06T12:12:43.952Z,20.43
2024-02-06T12:13:44.867Z,20.26
2024-02-06T12:14:43.983Z,20.10
2024-02-06T12:15:44.992Z,20.09
2024-02-06T12:16:44.129Z,20.02
2024-02-06T12:17:44.898Z,20.03
2024-02-06T12:18:44.073Z,19.99
2024-02-06T12:19:44.800Z,20.02
2024-02-06T12:20:44.280Z,20.24
2024-02-06T12:21:43.982Z,20.74
2024-02-06T12:22:44.168Z,21.12
2024-02-06T12:23:43.972Z,20.73
2024-02-06T12:24:43.945Z,20.69
2024-02-06T12:25:44.141Z,20.84
2024-02-06T12:26:43.986Z,21.29
2024-02-06T12:27:43.895Z,21.10
2024-02-06T12:28:44.090Z,20.86
2024-02-06T12:29:43.964Z,20.93
2024-02-06T12:30:43.963Z,20.86
2024-02-06T12:31:44.079Z,20.82
2024-02-06T12:32:44.136Z,20.77
2024-02-06T12:33:44.047Z,20.83
2024-02-06T12:34:44.073Z,20.83
2024-02-06T12:35:43.965Z,20.84
2024-02-06T12:36:43.948Z,20.76
2024-02-06T12:37:43.988Z,20.73
2024-02-06T12:38:43.904Z,20.63
2024-02-06T12:39:43.993Z,20.65
2024-02-06T12:40:44.067Z,20.63
2024-02-06T12:41:43.971Z,20.63
2024-02-06T12:42:44.094Z,20.65
2024-02-06T12:43:44.059Z,20.64
2024-02-06T12:44:49.490Z,20.63
2024-02-06T12:45:44.943Z,20.65
2024-02-06T12:46:44.675Z,20.60
2024-02-06T12:47:44.039Z,20.63
2024-02-06T12:48:43.989Z,20.65
2024-02-06T12:49:44.128Z,20.63
2024-02-06T12:50:44.357Z,20.56
2024-02-06T12:51:43.964Z,20.67
2024-02-06T12:52:44.008Z,20.73
2024-02-06T12:53:43.976Z,20.55